Aviation Digital Data Service (ADDS)

Output produced by METARs form (0114 UTC 07 February 2016)
found at http://www.aviationweather.gov/adds/metars/
 
KWWD 070055Z AUTO 00000KT 10SM CLR M01/M04 A3034 RMK AO1